Time;durP1;ratioP1;P1;durP2;ratioP2;P2;SDS_P1;SDS_P2;PMS_P1;PMS_P2;Temp;Humidity;BMP_temperature;BMP_pressure;BME280_temperature;BME280_humidity;BME280_pressure;Samples;Min_cycle;Max_cycle;Signal;HPM_P1;HPM_P2
2022/01/25 00:09:48;;;;;;;;;;;;;;;;;;7393632;19;2278;-46
2022/01/25 00:15:13;;;;;;;;;;;;;;;;;;7393587;19;2308;-43
2022/01/25 00:26:22;;;;;;;;;;;;;;;;;;7393653;19;2258;-44
2022/01/25 00:29:06;;;;;;;;;;;;;;;;;;7395181;19;2239;-46
2022/01/25 00:31:34;;;;;;;;;;;;;;;;;;7393618;19;2186;-45
2022/01/25 00:34:02;;;;;;;;;;;;;;;;;;7392114;19;2287;-45
2022/01/25 00:36:29;;;;;;;;;;;;;;;;;;7392992;19;2232;-45
2022/01/25 00:38:57;;;;;;;;;;;;;;;;;;7393413;19;1785;-44
2022/01/25 00:41:25;;;;;;;;;;;;;;;;;;7392525;19;1893;-50
2022/01/25 00:43:52;;;;;;;;;;;;;;;;;;7392807;19;2314;-43
2022/01/25 00:46:21;;;;;;;;;;;;;;;;;;7392676;19;2246;-45
2022/01/25 00:48:53;;;;;;;;;;;;;;;;;;7392445;19;2155;-43
2022/01/25 00:54:06;;;;;;;;;;;;;;;;;;7390473;19;2262;-45
2022/01/25 00:56:35;;;;;;;;;;;;;;;;;;7391399;19;2203;-43
2022/01/25 00:59:04;;;;;;;;;;;;;;;;;;7392617;19;2359;-46
2022/01/25 01:01:31;;;;;;;;;;;;;;;;;;7391742;19;1997;-49
2022/01/25 01:03:59;;;;;;;;;;;;;;;;;;7392170;19;2196;-49
2022/01/25 01:06:26;;;;;;;;;;;;;;;;;;7391467;19;2242;-43
2022/01/25 01:08:54;;;;;;;;;;;;;;;;;;7391836;19;2196;-43
2022/01/25 01:11:29;;;;;;;;;;;;;;;;;;7393770;19;2150;-42
2022/01/25 01:14:03;;;;;;;;;;;;;;;;;;7390578;19;2190;-45
2022/01/25 01:30:23;;;;;;;;;;;;;;;;;;7391228;19;2633;-43
2022/01/25 01:43:56;;;;;;;;;;;;;;;;;;7390335;19;2355;-46
2022/01/25 01:49:02;;;;;;;;;;;;;;;;;;7390633;19;2413;-46
2022/01/25 01:51:35;;;;;;;;;;;;;;;;;;7390773;19;2091;-46
2022/01/25 01:54:04;;;;;;;;;;;;;;;;;;7389500;19;2334;-44
2022/01/25 01:56:32;;;;;;;;;;;;;;;;;;7390414;19;2124;-47
2022/01/25 01:59:01;;;;;;;;;;;;;;;;;;7390940;19;2196;-43
2022/01/25 02:01:29;;;;;;;;;;;;;;;;;;7390361;19;2060;-43
2022/01/25 02:03:57;;;;;;;;;;;;;;;;;;7388901;19;2287;-44
2022/01/25 02:06:24;;;;;;;;;;;;;;;;;;7389995;19;2048;-46
2022/01/25 02:08:52;;;;;;;;;;;;;;;;;;7390269;19;2234;-43
2022/01/25 02:11:19;;;;;;;;;;;;;;;;;;7392701;19;2184;-44
2022/01/25 02:13:47;;;;;;;;;;;;;;;;;;7388843;19;2303;-46
2022/01/25 02:17:09;;;;;;;;;;;;;;;;;;7389600;19;2350;-43
2022/01/25 02:24:36;;;;;;;;;;;;;;;;;;7389647;19;1936;-44
2022/01/25 02:27:03;;;;;;;;;;;;;;;;;;7389394;19;2213;-44
2022/01/25 02:29:31;;;;;;;;;;;;;;;;;;7389350;19;1901;-44
2022/01/25 02:31:58;;;;;;;;;;;;;;;;;;7388742;19;2139;-44
2022/01/25 02:34:25;;;;;;;;;;;;;;;;;;7387778;19;1938;-50
2022/01/25 02:37:00;;;;;;;;;;;;;;;;;;7389061;19;2325;-43
2022/01/25 02:39:27;;;;;;;;;;;;;;;;;;7389504;19;2021;-43
2022/01/25 02:41:54;;;;;;;;;;;;;;;;;;7389184;19;2299;-43
2022/01/25 02:44:27;;;;;;;;;;;;;;;;;;7388444;19;2292;-50
2022/01/25 02:49:31;;;;;;;;;;;;;;;;;;7389185;19;2332;-47
2022/01/25 02:52:00;;;;;;;;;;;;;;;;;;7386998;19;2323;-45
2022/01/25 02:54:28;;;;;;;;;;;;;;;;;;7386906;19;2275;-44
2022/01/25 02:56:56;;;;;;;;;;;;;;;;;;7388583;19;2216;-44
2022/01/25 02:59:24;;;;;;;;;;;;;;;;;;7389720;19;2145;-46
2022/01/25 03:01:51;;;;;;;;;;;;;;;;;;7388541;19;1920;-48
2022/01/25 03:04:20;;;;;;;;;;;;;;;;;;7388934;19;1586;-44
2022/01/25 03:06:47;;;;;;;;;;;;;;;;;;7388363;19;1647;-44
2022/01/25 03:09:15;;;;;;;;;;;;;;;;;;7388377;19;2299;-48
2022/01/25 03:11:45;;;;;;;;;;;;;;;;;;7391175;19;2405;-46
2022/01/25 03:14:13;;;;;;;;;;;;;;;;;;7390294;19;2258;-51
2022/01/25 03:16:48;;;;;;;;;;;;;;;;;;7393751;19;2443;-43
2022/01/25 03:21:57;;;;;;;;;;;;;;;;;;7395606;19;2399;-44
2022/01/25 03:24:24;;;;;;;;;;;;;;;;;;7395196;19;2110;-45
2022/01/25 03:26:52;;;;;;;;;;;;;;;;;;7394462;19;2174;-45
2022/01/25 03:29:19;;;;;;;;;;;;;;;;;;7395032;19;2252;-44
2022/01/25 03:31:46;;;;;;;;;;;;;;;;;;7395363;19;2288;-44
2022/01/25 03:34:14;;;;;;;;;;;;;;;;;;7393451;19;2150;-44
2022/01/25 03:36:42;;;;;;;;;;;;;;;;;;7394074;19;2257;-43
2022/01/25 03:39:09;;;;;;;;;;;;;;;;;;7395750;19;2262;-46
2022/01/25 03:41:36;;;;;;;;;;;;;;;;;;7394726;19;1575;-44
2022/01/25 03:44:04;;;;;;;;;;;;;;;;;;7394774;19;2224;-50
2022/01/25 03:46:52;;;;;;;;;;;;;;;;;;7394885;19;2302;-44
2022/01/25 03:52:08;;;;;;;;;;;;;;;;;;7394013;19;2200;-44
2022/01/25 03:54:36;;;;;;;;;;;;;;;;;;7392619;19;2295;-44
2022/01/25 03:57:03;;;;;;;;;;;;;;;;;;7394484;19;2173;-43
2022/01/25 03:59:31;;;;;;;;;;;;;;;;;;7393868;19;1357;-44
2022/01/25 04:01:58;;;;;;;;;;;;;;;;;;7394125;19;2019;-45
2022/01/25 04:04:26;;;;;;;;;;;;;;;;;;7394417;19;2208;-51
2022/01/25 04:06:54;;;;;;;;;;;;;;;;;;7393796;19;1976;-46
2022/01/25 04:09:21;;;;;;;;;;;;;;;;;;7394024;19;1711;-44
2022/01/25 04:11:49;;;;;;;;;;;;;;;;;;7396475;19;1843;-45
2022/01/25 04:14:16;;;;;;;;;;;;;;;;;;7390562;19;1846;-45
2022/01/25 04:17:02;;;;;;;;;;;;;;;;;;7393291;19;2079;-46
2022/01/25 04:25:03;;;;;;;;;;;;;;;;;;7392110;19;2469;-45
2022/01/25 04:27:31;;;;;;;;;;;;;;;;;;7395259;19;1904;-46
2022/01/25 04:29:59;;;;;;;;;;;;;;;;;;7391150;19;2243;-43
2022/01/25 04:33:38;;;;;;;;;;;;;;;;;;7393299;19;2177;-48
2022/01/25 04:51:51;;;;;;;;;;;;;;;;;;7392096;19;2325;-44
2022/01/25 04:54:29;;;;;;;;;;;;;;;;;;7391729;19;2282;-50
2022/01/25 04:59:51;;;;;;;;;;;;;;;;;;7391697;19;2181;-46
2022/01/25 05:04:59;;;;;;;;;;;;;;;;;;7389752;19;2025;-44
2022/01/25 05:07:47;;;;;;;;;;;;;;;;;;7392307;19;1876;-43
2022/01/25 05:10:15;;;;;;;;;;;;;;;;;;7391839;19;2283;-44
2022/01/25 05:12:52;;;;;;;;;;;;;;;;;;7392506;19;2399;-46
2022/01/25 05:18:25;;;;;;;;;;;;;;;;;;7389997;19;2271;-44
2022/01/25 05:23:38;;;;;;;;;;;;;;;;;;7391363;19;2307;-46
2022/01/25 05:26:05;;;;;;;;;;;;;;;;;;7389870;19;2272;-44
2022/01/25 05:28:33;;;;;;;;;;;;;;;;;;7391148;19;2277;-49
2022/01/25 05:31:00;;;;;;;;;;;;;;;;;;7391729;19;2201;-43
2022/01/25 05:33:28;;;;;;;;;;;;;;;;;;7390398;19;2272;-51
2022/01/25 05:35:55;;;;;;;;;;;;;;;;;;7390792;19;2016;-43
2022/01/25 05:38:23;;;;;;;;;;;;;;;;;;7390628;19;2317;-44
2022/01/25 05:40:59;;;;;;;;;;;;;;;;;;7390420;19;2093;-45
2022/01/25 05:46:32;;;;;;;;;;;;;;;;;;7390962;19;2214;-46
2022/01/25 05:48:50;;;;;;;;;;;;;;;;;;7390728;19;2298;-43
2022/01/25 05:51:17;;;;;;;;;;;;;;;;;;7390406;19;2109;-44
2022/01/25 05:53:44;;;;;;;;;;;;;;;;;;7390673;19;2225;-46
2022/01/25 05:56:11;;;;;;;;;;;;;;;;;;7391592;19;2225;-43
2022/01/25 05:58:38;;;;;;;;;;;;;;;;;;7390181;19;1804;-41
2022/01/25 06:01:06;;;;;;;;;;;;;;;;;;7389875;19;2218;-44
2022/01/25 06:03:33;;;;;;;;;;;;;;;;;;7390038;19;1448;-46
2022/01/25 06:06:01;;;;;;;;;;;;;;;;;;7390253;19;2206;-42
2022/01/25 06:08:28;;;;;;;;;;;;;;;;;;7389846;19;2421;-48
2022/01/25 06:10:56;;;;;;;;;;;;;;;;;;7391134;19;2186;-49
2022/01/25 06:13:23;;;;;;;;;;;;;;;;;;7389887;19;2210;-47
2022/01/25 06:15:50;;;;;;;;;;;;;;;;;;7390062;19;2118;-46
2022/01/25 06:18:18;;;;;;;;;;;;;;;;;;7388022;19;2266;-45
2022/01/25 06:20:45;;;;;;;;;;;;;;;;;;7389918;19;2263;-44
2022/01/25 06:23:12;;;;;;;;;;;;;;;;;;7390044;19;2266;-44
2022/01/25 06:25:41;;;;;;;;;;;;;;;;;;7389348;19;2432;-43
2022/01/25 06:28:08;;;;;;;;;;;;;;;;;;7390025;19;2358;-44
2022/01/25 06:30:35;;;;;;;;;;;;;;;;;;7389623;19;2000;-46
2022/01/25 06:33:09;;;;;;;;;;;;;;;;;;7388976;19;1935;-44
2022/01/25 06:35:37;;;;;;;;;;;;;;;;;;7387326;19;2421;-43
2022/01/25 06:38:04;;;;;;;;;;;;;;;;;;7389518;19;2312;-44
2022/01/25 06:40:31;;;;;;;;;;;;;;;;;;7390060;19;2293;-45
2022/01/25 06:42:59;;;;;;;;;;;;;;;;;;7387808;19;2190;-44
2022/01/25 06:45:27;;;;;;;;;;;;;;;;;;7389598;19;2252;-43
2022/01/25 06:47:54;;;;;;;;;;;;;;;;;;7389185;19;2539;-51
2022/01/25 06:50:23;;;;;;;;;;;;;;;;;;7395388;19;2254;-45
2022/01/25 06:52:51;;;;;;;;;;;;;;;;;;7396064;19;2233;-43
2022/01/25 06:55:34;;;;;;;;;;;;;;;;;;7393717;19;1979;-44
2022/01/25 06:58:01;;;;;;;;;;;;;;;;;;7396277;19;1871;-43
2022/01/25 07:00:29;;;;;;;;;;;;;;;;;;7395631;19;2488;-43
2022/01/25 07:02:56;;;;;;;;;;;;;;;;;;7396096;19;2315;-42
2022/01/25 07:05:25;;;;;;;;;;;;;;;;;;7396462;19;2108;-45
2022/01/25 07:07:53;;;;;;;;;;;;;;;;;;7396266;19;2001;-44
2022/01/25 07:10:21;;;;;;;;;;;;;;;;;;7395948;19;2214;-45
2022/01/25 07:12:48;;;;;;;;;;;;;;;;;;7396129;19;2261;-44
2022/01/25 07:15:16;;;;;;;;;;;;;;;;;;7394417;19;2389;-51
2022/01/25 07:17:43;;;;;;;;;;;;;;;;;;7393838;19;2152;-44
2022/01/25 07:20:12;;;;;;;;;;;;;;;;;;7396017;19;2060;-44
2022/01/25 07:22:40;;;;;;;;;;;;;;;;;;7394921;19;1778;-45
2022/01/25 07:25:09;;;;;;;;;;;;;;;;;;7395407;19;2133;-45
2022/01/25 07:27:37;;;;;;;;;;;;;;;;;;7394934;19;2312;-45
2022/01/25 07:30:05;;;;;;;;;;;;;;;;;;7394995;19;2270;-47
2022/01/25 07:32:33;;;;;;;;;;;;;;;;;;7395123;19;2565;-44
2022/01/25 07:35:03;;;;;;;;;;;;;;;;;;7395777;19;1861;-47
2022/01/25 07:37:36;;;;;;;;;;;;;;;;;;7394315;19;2403;-46
2022/01/25 07:40:03;;;;;;;;;;;;;;;;;;7394727;19;2409;-47
2022/01/25 07:42:36;;;;;;;;;;;;;;;;;;7394952;19;2370;-44
2022/01/25 07:45:12;;;;;;;;;;;;;;;;;;7395684;19;2043;-45
2022/01/25 07:47:40;;;;;;;;;;;;;;;;;;7394628;19;2134;-43
2022/01/25 07:50:12;;;;;;;;;;;;;;;;;;7395044;19;1941;-48
2022/01/25 07:52:39;;;;;;;;;;;;;;;;;;7394326;19;2503;-44
2022/01/25 07:55:07;;;;;;;;;;;;;;;;;;7393258;19;2218;-43
2022/01/25 07:57:34;;;;;;;;;;;;;;;;;;7394092;19;2221;-46
2022/01/25 08:00:02;;;;;;;;;;;;;;;;;;7390353;19;2221;-43
2022/01/25 08:02:40;;;;;;;;;;;;;;;;;;7395015;19;2126;-48
2022/01/25 08:05:15;;;;;;;;;;;;;;;;;;7394047;19;2323;-47
2022/01/25 08:07:46;;;;;;;;;;;;;;;;;;7394200;19;2266;-42
2022/01/25 08:10:22;;;;;;;;;;;;;;;;;;7394451;19;2329;-44
2022/01/25 08:12:55;;;;;;;;;;;;;;;;;;7393766;19;2303;-49
2022/01/25 08:15:24;;;;;;;;;;;;;;;;;;7392427;19;2195;-44
2022/01/25 08:17:51;;;;;;;;;;;;;;;;;;7391944;19;1421;-43
2022/01/25 08:20:24;;;;;;;;;;;;;;;;;;7393285;19;2139;-43
2022/01/25 08:22:51;;;;;;;;;;;;;;;;;;7393582;19;2227;-49
2022/01/25 08:25:24;;;;;;;;;;;;;;;;;;7393542;19;2381;-49
2022/01/25 08:28:00;;;;;;;;;;;;;;;;;;7390845;19;2276;-46
2022/01/25 08:30:30;;;;;;;;;;;;;;;;;;7393201;19;2160;-43
2022/01/25 08:32:59;;;;;;;;;;;;;;;;;;7393425;19;2084;-43
2022/01/25 08:35:35;;;;;;;;;;;;;;;;;;7391985;19;1990;-52
2022/01/25 08:38:08;;;;;;;;;;;;;;;;;;7393163;19;2206;-46
2022/01/25 08:40:40;;;;;;;;;;;;;;;;;;7392966;19;2135;-52
2022/01/25 08:43:08;;;;;;;;;;;;;;;;;;7393318;19;2071;-45
2022/01/25 08:45:40;;;;;;;;;;;;;;;;;;7394648;19;2325;-48
2022/01/25 08:48:08;;;;;;;;;;;;;;;;;;7396206;19;2342;-44
2022/01/25 08:50:37;;;;;;;;;;;;;;;;;;7393201;19;2207;-43
2022/01/25 08:53:15;;;;;;;;;;;;;;;;;;7392726;19;2021;-45
2022/01/25 08:55:43;;;;;;;;;;;;;;;;;;7392006;19;2346;-44
2022/01/25 08:58:12;;;;;;;;;;;;;;;;;;7393101;19;2234;-43
2022/01/25 09:00:39;;;;;;;;;;;;;;;;;;7392121;19;2440;-48
2022/01/25 09:03:06;;;;;;;;;;;;;;;;;;7392267;19;2103;-47
2022/01/25 09:05:34;;;;;;;;;;;;;;;;;;7392053;19;2256;-46
2022/01/25 09:08:02;;;;;;;;;;;;;;;;;;7392107;19;2483;-43
2022/01/25 09:10:30;;;;;;;;;;;;;;;;;;7392014;19;2189;-43
2022/01/25 09:12:57;;;;;;;;;;;;;;;;;;7391078;19;2223;-45
2022/01/25 09:15:24;;;;;;;;;;;;;;;;;;7390680;19;2307;-46
2022/01/25 09:17:52;;;;;;;;;;;;;;;;;;7387078;19;2538;-46
2022/01/25 09:20:20;;;;;;;;;;;;;;;;;;7377411;19;1990;-45
2022/01/25 09:22:47;;;;;;;;;;;;;;;;;;7391096;19;2268;-42
2022/01/25 09:25:27;;;;;;;;;;;;;;;;;;7390905;19;2294;-48
2022/01/25 09:27:55;;;;;;;;;;;;;;;;;;7391872;19;2329;-42
2022/01/25 09:30:22;;;;;;;;;;;;;;;;;;7387156;19;2243;-46
2022/01/25 09:32:49;;;;;;;;;;;;;;;;;;7390344;19;2363;-45
2022/01/25 09:35:17;;;;;;;;;;;;;;;;;;7389492;19;2281;-49
2022/01/25 09:37:44;;;;;;;;;;;;;;;;;;7391078;19;2343;-48
2022/01/25 09:40:12;;;;;;;;;;;;;;;;;;7386687;19;2313;-51
2022/01/25 09:42:40;;;;;;;;;;;;;;;;;;7390779;19;2252;-50
2022/01/25 09:45:08;;;;;;;;;;;;;;;;;;7391303;19;2290;-46
2022/01/25 09:47:39;;;;;;;;;;;;;;;;;;7392830;19;2347;-44
2022/01/25 09:50:07;;;;;;;;;;;;;;;;;;7390187;19;2272;-45
2022/01/25 09:52:35;;;;;;;;;;;;;;;;;;7390146;19;2260;-46
2022/01/25 09:55:08;;;;;;;;;;;;;;;;;;7390624;19;2237;-47
2022/01/25 09:57:35;;;;;;;;;;;;;;;;;;7389879;19;2115;-48
2022/01/25 10:00:03;;;;;;;;;;;;;;;;;;7386063;19;2033;-46
2022/01/25 10:02:44;;;;;;;;;;;;;;;;;;7390560;19;2380;-44
2022/01/25 10:05:26;;;;;;;;;;;;;;;;;;7390351;19;2392;-48
2022/01/25 10:08:05;;;;;;;;;;;;;;;;;;7390615;19;2268;-47
2022/01/25 10:10:34;;;;;;;;;;;;;;;;;;7386218;19;2281;-48
2022/01/25 10:13:21;;;;;;;;;;;;;;;;;;7389889;19;2250;-43
2022/01/25 10:15:57;;;;;;;;;;;;;;;;;;7389627;19;2185;-44
2022/01/25 10:18:44;;;;;;;;;;;;;;;;;;7384294;19;2356;-44
2022/01/25 10:21:12;;;;;;;;;;;;;;;;;;7388594;19;2305;-44
2022/01/25 10:23:41;;;;;;;;;;;;;;;;;;7387319;19;2402;-46
2022/01/25 10:26:08;;;;;;;;;;;;;;;;;;7388953;19;2437;-48
2022/01/25 10:28:50;;;;;;;;;;;;;;;;;;7386566;19;2159;-48
2022/01/25 10:31:17;;;;;;;;;;;;;;;;;;7388934;19;2171;-50
2022/01/25 10:33:52;;;;;;;;;;;;;;;;;;7389825;19;2233;-50
2022/01/25 10:36:44;;;;;;;;;;;;;;;;;;7386862;19;1838;-44
2022/01/25 10:39:13;;;;;;;;;;;;;;;;;;7384721;19;2244;-48
2022/01/25 10:41:42;;;;;;;;;;;;;;;;;;7389463;19;2273;-44
2022/01/25 10:44:09;;;;;;;;;;;;;;;;;;7387976;19;2314;-47
2022/01/25 10:46:36;;;;;;;;;;;;;;;;;;7389224;19;2188;-49
2022/01/25 10:49:08;;;;;;;;;;;;;;;;;;7389518;19;2206;-51
2022/01/25 10:51:49;;;;;;;;;;;;;;;;;;7389021;19;2037;-44
2022/01/25 10:54:17;;;;;;;;;;;;;;;;;;7389469;19;2253;-46
2022/01/25 10:56:47;;;;;;;;;;;;;;;;;;7387973;19;2106;-46
2022/01/25 10:59:19;;;;;;;;;;;;;;;;;;7389226;19;1627;-45
2022/01/25 11:01:51;;;;;;;;;;;;;;;;;;7389698;19;2343;-46
2022/01/25 11:04:21;;;;;;;;;;;;;;;;;;7387883;19;2042;-51
2022/01/25 11:06:59;;;;;;;;;;;;;;;;;;7388783;19;2278;-45
2022/01/25 11:09:29;;;;;;;;;;;;;;;;;;7388744;19;2489;-49
2022/01/25 11:11:57;;;;;;;;;;;;;;;;;;7392190;19;2459;-47
2022/01/25 11:17:10;;;;;;;;;;;;;;;;;;7388061;19;2397;-49
2022/01/25 11:19:37;;;;;;;;;;;;;;;;;;7388721;19;1977;-45
2022/01/25 11:22:05;;;;;;;;;;;;;;;;;;7388162;19;2481;-48
2022/01/25 11:24:34;;;;;;;;;;;;;;;;;;7388523;19;2272;-48
2022/01/25 11:27:03;;;;;;;;;;;;;;;;;;7388181;19;2299;-53
2022/01/25 11:29:32;;;;;;;;;;;;;;;;;;7387311;19;2306;-50
2022/01/25 11:32:05;;;;;;;;;;;;;;;;;;7387757;19;2095;-51
2022/01/25 11:34:33;;;;;;;;;;;;;;;;;;7389213;19;2310;-50
2022/01/25 11:37:07;;;;;;;;;;;;;;;;;;7393164;19;2291;-49
2022/01/25 11:39:35;;;;;;;;;;;;;;;;;;7394792;19;1593;-50
2022/01/25 11:42:11;;;;;;;;;;;;;;;;;;7395095;19;2315;-48
2022/01/25 11:44:51;;;;;;;;;;;;;;;;;;7395451;19;2290;-49
2022/01/25 11:47:20;;;;;;;;;;;;;;;;;;7394811;19;1990;-50
2022/01/25 11:49:53;;;;;;;;;;;;;;;;;;7394959;19;2191;-51
2022/01/25 11:52:22;;;;;;;;;;;;;;;;;;7390128;19;2205;-49
2022/01/25 11:54:50;;;;;;;;;;;;;;;;;;7395356;19;1877;-50
2022/01/25 11:57:19;;;;;;;;;;;;;;;;;;7392030;19;2430;-49
2022/01/25 11:59:57;;;;;;;;;;;;;;;;;;7394788;19;2407;-52
2022/01/25 12:02:42;;;;;;;;;;;;;;;;;;7393562;19;2170;-65
2022/01/25 12:05:15;;;;;;;;;;;;;;;;;;7393927;19;2178;-45
2022/01/25 12:08:00;;;;;;;;;;;;;;;;;;7394196;19;1749;-45
2022/01/25 12:10:39;;;;;;;;;;;;;;;;;;7392494;19;2260;-50
2022/01/25 12:13:28;;;;;;;;;;;;;;;;;;7394251;19;2205;-46
2022/01/25 12:16:14;;;;;;;;;;;;;;;;;;7393477;19;2431;-45
2022/01/25 12:18:55;;;;;;;;;;;;;;;;;;7391505;19;2173;-47
2022/01/25 12:21:46;;;;;;;;;;;;;;;;;;7393364;19;2255;-47
2022/01/25 12:24:18;;;;;;;;;;;;;;;;;;7392718;19;2205;-50
2022/01/25 12:27:02;;;;;;;;;;;;;;;;;;7393347;19;2295;-48
2022/01/25 12:29:33;;;;;;;;;;;;;;;;;;7394111;19;2110;-47
2022/01/25 12:32:20;;;;;;;;;;;;;;;;;;7393552;19;2006;-44
2022/01/25 12:34:58;;;;;;;;;;;;;;;;;;7393490;19;2161;-45
2022/01/25 12:37:44;;;;;;;;;;;;;;;;;;7390961;19;2193;-43
2022/01/25 12:40:31;;;;;;;;;;;;;;;;;;7393921;19;2272;-44
2022/01/25 12:43:07;;;;;;;;;;;;;;;;;;7391713;19;3210;-45
2022/01/25 12:45:47;;;;;;;;;;;;;;;;;;7393194;19;2338;-48
2022/01/25 12:48:16;;;;;;;;;;;;;;;;;;7391595;19;1886;-47
2022/01/25 12:50:45;;;;;;;;;;;;;;;;;;7392667;19;2240;-47
2022/01/25 12:53:14;;;;;;;;;;;;;;;;;;7392929;19;2148;-50
2022/01/25 12:55:43;;;;;;;;;;;;;;;;;;7391937;19;1829;-44
2022/01/25 12:58:10;;;;;;;;;;;;;;;;;;7392801;19;2139;-44
2022/01/25 13:00:40;;;;;;;;;;;;;;;;;;7391600;19;2213;-48
2022/01/25 13:03:15;;;;;;;;;;;;;;;;;;7391814;19;2411;-47
2022/01/25 13:05:52;;;;;;;;;;;;;;;;;;7391761;19;2492;-51
2022/01/25 13:08:26;;;;;;;;;;;;;;;;;;7392840;19;2242;-45
2022/01/25 13:11:11;;;;;;;;;;;;;;;;;;7393509;19;2225;-42
2022/01/25 13:13:47;;;;;;;;;;;;;;;;;;7392626;19;2212;-44
2022/01/25 13:16:33;;;;;;;;;;;;;;;;;;7390761;19;2131;-48
2022/01/25 13:19:00;;;;;;;;;;;;;;;;;;7392129;19;2282;-52
2022/01/25 13:21:35;;;;;;;;;;;;;;;;;;7391372;19;2168;-50
2022/01/25 13:24:26;;;;;;;;;;;;;;;;;;7391640;19;2308;-43
2022/01/25 13:26:55;;;;;;;;;;;;;;;;;;7392350;19;2085;-44
2022/01/25 13:32:24;;;;;;;;;;;;;;;;;;7391109;19;2257;-45
2022/01/25 13:38:06;;;;;;;;;;;;;;;;;;7390944;19;2014;-46
2022/01/25 13:40:48;;;;;;;;;;;;;;;;;;7394069;19;2254;-50
2022/01/25 13:45:56;;;;;;;;;;;;;;;;;;7387751;19;1634;-48
2022/01/25 13:48:26;;;;;;;;;;;;;;;;;;7394770;19;2158;-44
2022/01/25 13:50:57;;;;;;;;;;;;;;;;;;7389714;19;2057;-49
2022/01/25 13:53:25;;;;;;;;;;;;;;;;;;7387588;19;2226;-43
2022/01/25 13:55:53;;;;;;;;;;;;;;;;;;7387421;19;2431;-44
2022/01/25 13:58:27;;;;;;;;;;;;;;;;;;7385454;19;2127;-44
2022/01/25 14:00:56;;;;;;;;;;;;;;;;;;7388085;19;2124;-44
2022/01/25 14:03:27;;;;;;;;;;;;;;;;;;7389887;19;2377;-44
2022/01/25 14:05:55;;;;;;;;;;;;;;;;;;7391168;19;2209;-43
2022/01/25 14:08:33;;;;;;;;;;;;;;;;;;7391355;19;2282;-46
2022/01/25 14:11:03;;;;;;;;;;;;;;;;;;7391394;19;1699;-49
2022/01/25 14:22:11;;;;;;;;;;;;;;;;;;7389408;19;2035;-50
2022/01/25 14:24:38;;;;;;;;;;;;;;;;;;7390154;19;2284;-48
2022/01/25 14:27:19;;;;;;;;;;;;;;;;;;7389809;19;2119;-44
2022/01/25 14:29:50;;;;;;;;;;;;;;;;;;7390262;19;2299;-46
2022/01/25 14:32:26;;;;;;;;;;;;;;;;;;7389745;19;2155;-47
2022/01/25 14:35:04;;;;;;;;;;;;;;;;;;7390421;19;2334;-46
2022/01/25 14:37:32;;;;;;;;;;;;;;;;;;7388074;19;2292;-49
2022/01/25 14:40:10;;;;;;;;;;;;;;;;;;7389583;19;2353;-48
2022/01/25 14:42:38;;;;;;;;;;;;;;;;;;7389085;19;2114;-45
2022/01/25 14:45:07;;;;;;;;;;;;;;;;;;7388976;19;2251;-47
2022/01/25 14:47:38;;;;;;;;;;;;;;;;;;7389399;19;2380;-46
2022/01/25 14:50:07;;;;;;;;;;;;;;;;;;7388688;19;2403;-46
2022/01/25 14:52:34;;;;;;;;;;;;;;;;;;7388846;19;2544;-45
2022/01/25 14:55:02;;;;;;;;;;;;;;;;;;7388478;19;1910;-46
2022/01/25 14:57:39;;;;;;;;;;;;;;;;;;7382852;19;2300;-46
2022/01/25 15:00:06;;;;;;;;;;;;;;;;;;7384575;19;2275;-51
2022/01/25 15:02:34;;;;;;;;;;;;;;;;;;7384169;19;2254;-49
2022/01/25 15:05:03;;;;;;;;;;;;;;;;;;7384389;19;1976;-49
2022/01/25 15:07:34;;;;;;;;;;;;;;;;;;7385772;19;2306;-45
2022/01/25 15:10:05;;;;;;;;;;;;;;;;;;7389674;19;1910;-47
2022/01/25 15:12:52;;;;;;;;;;;;;;;;;;7399252;19;2293;-48
2022/01/25 15:15:44;;;;;;;;;;;;;;;;;;7396389;19;2354;-46
2022/01/25 15:18:12;;;;;;;;;;;;;;;;;;7393359;19;2259;-51
2022/01/25 15:20:39;;;;;;;;;;;;;;;;;;7399508;19;2259;-49
2022/01/25 15:23:10;;;;;;;;;;;;;;;;;;7396246;19;2299;-49
2022/01/25 15:25:37;;;;;;;;;;;;;;;;;;7395713;19;1925;-47
2022/01/25 15:28:06;;;;;;;;;;;;;;;;;;7395705;19;2485;-51
2022/01/25 15:30:34;;;;;;;;;;;;;;;;;;7395339;19;1993;-50
2022/01/25 15:33:02;;;;;;;;;;;;;;;;;;7395075;19;2295;-44
2022/01/25 15:35:31;;;;;;;;;;;;;;;;;;7395422;19;2081;-48
2022/01/25 15:38:00;;;;;;;;;;;;;;;;;;7393708;19;2232;-50
2022/01/25 15:40:28;;;;;;;;;;;;;;;;;;7395719;19;2403;-48
2022/01/25 15:42:55;;;;;;;;;;;;;;;;;;7394620;19;2282;-52
2022/01/25 15:45:27;;;;;;;;;;;;;;;;;;7394481;19;2110;-46
2022/01/25 15:47:55;;;;;;;;;;;;;;;;;;7394830;19;1771;-44
2022/01/25 15:50:25;;;;;;;;;;;;;;;;;;7394781;19;2387;-50
2022/01/25 15:52:53;;;;;;;;;;;;;;;;;;7394899;19;2282;-49
2022/01/25 15:55:21;;;;;;;;;;;;;;;;;;7393676;19;2283;-44
2022/01/25 15:57:48;;;;;;;;;;;;;;;;;;7393095;19;2179;-48
2022/01/25 16:00:16;;;;;;;;;;;;;;;;;;7394399;19;2191;-49
2022/01/25 16:02:43;;;;;;;;;;;;;;;;;;7394794;19;2269;-51
2022/01/25 16:05:11;;;;;;;;;;;;;;;;;;7393818;19;2045;-47
2022/01/25 16:07:38;;;;;;;;;;;;;;;;;;7394525;19;2260;-47
2022/01/25 16:10:07;;;;;;;;;;;;;;;;;;7394640;19;2103;-47
2022/01/25 16:12:34;;;;;;;;;;;;;;;;;;7398313;19;2248;-49
2022/01/25 16:15:02;;;;;;;;;;;;;;;;;;7394870;19;2283;-48
2022/01/25 16:17:29;;;;;;;;;;;;;;;;;;7393822;19;1962;-44
2022/01/25 16:19:56;;;;;;;;;;;;;;;;;;7394067;19;1460;-52
2022/01/25 16:22:24;;;;;;;;;;;;;;;;;;7390491;19;2277;-49
2022/01/25 16:24:51;;;;;;;;;;;;;;;;;;7393970;19;2284;-53
2022/01/25 16:27:18;;;;;;;;;;;;;;;;;;7393478;19;1882;-50
2022/01/25 16:29:45;;;;;;;;;;;;;;;;;;7393386;19;2231;-44
2022/01/25 16:32:13;;;;;;;;;;;;;;;;;;7393187;19;2347;-43
2022/01/25 16:34:40;;;;;;;;;;;;;;;;;;7392462;19;2207;-48
2022/01/25 16:37:08;;;;;;;;;;;;;;;;;;7392710;19;2188;-52
2022/01/25 16:39:37;;;;;;;;;;;;;;;;;;7392977;19;1942;-48
2022/01/25 16:42:05;;;;;;;;;;;;;;;;;;7392659;19;2206;-44
2022/01/25 16:44:56;;;;;;;;;;;;;;;;;;7392876;19;2205;-51
2022/01/25 16:47:29;;;;;;;;;;;;;;;;;;7392626;19;2227;-46
2022/01/25 16:49:56;;;;;;;;;;;;;;;;;;7392315;19;2248;-49
2022/01/25 16:52:23;;;;;;;;;;;;;;;;;;7392300;19;2197;-47
2022/01/25 16:54:50;;;;;;;;;;;;;;;;;;7392986;19;1947;-45
2022/01/25 16:57:38;;;;;;;;;;;;;;;;;;7391347;19;1894;-48
2022/01/25 17:00:09;;;;;;;;;;;;;;;;;;7392949;19;2210;-48
2022/01/25 17:02:36;;;;;;;;;;;;;;;;;;7391711;19;2236;-48
2022/01/25 17:05:04;;;;;;;;;;;;;;;;;;7392248;19;1873;-48
2022/01/25 17:07:31;;;;;;;;;;;;;;;;;;7392993;19;2320;-49
2022/01/25 17:09:59;;;;;;;;;;;;;;;;;;7392229;19;2313;-51
2022/01/25 17:12:26;;;;;;;;;;;;;;;;;;7396427;19;2279;-45
2022/01/25 17:15:04;;;;;;;;;;;;;;;;;;7391735;19;2435;-46
2022/01/25 17:17:32;;;;;;;;;;;;;;;;;;7391492;19;2108;-42
2022/01/25 17:20:00;;;;;;;;;;;;;;;;;;7391520;19;2224;-47
2022/01/25 17:22:27;;;;;;;;;;;;;;;;;;7391485;19;2265;-52
2022/01/25 17:24:54;;;;;;;;;;;;;;;;;;7391852;19;2277;-47
2022/01/25 17:27:21;;;;;;;;;;;;;;;;;;7391370;19;2203;-49
2022/01/25 17:29:49;;;;;;;;;;;;;;;;;;7391203;19;2051;-49
2022/01/25 17:32:16;;;;;;;;;;;;;;;;;;7391384;19;2401;-51
2022/01/25 17:34:44;;;;;;;;;;;;;;;;;;7391182;19;2014;-45
2022/01/25 17:37:16;;;;;;;;;;;;;;;;;;7389730;19;2327;-50
2022/01/25 17:39:43;;;;;;;;;;;;;;;;;;7391442;19;1994;-47
2022/01/25 17:42:11;;;;;;;;;;;;;;;;;;7390780;19;2412;-51
2022/01/25 17:44:39;;;;;;;;;;;;;;;;;;7391227;19;2362;-47
2022/01/25 17:47:06;;;;;;;;;;;;;;;;;;7391326;19;2426;-51
2022/01/25 17:49:34;;;;;;;;;;;;;;;;;;7391590;19;2400;-50
2022/01/25 17:52:01;;;;;;;;;;;;;;;;;;7390355;19;2434;-48
2022/01/25 17:54:32;;;;;;;;;;;;;;;;;;7390588;19;2191;-48
2022/01/25 17:57:00;;;;;;;;;;;;;;;;;;7389952;19;2324;-50
2022/01/25 17:59:27;;;;;;;;;;;;;;;;;;7390495;19;2253;-50
2022/01/25 18:01:58;;;;;;;;;;;;;;;;;;7390463;19;2266;-44
2022/01/25 18:04:26;;;;;;;;;;;;;;;;;;7390834;19;1955;-49
2022/01/25 18:06:53;;;;;;;;;;;;;;;;;;7390263;19;1899;-53
2022/01/25 18:09:20;;;;;;;;;;;;;;;;;;7390443;19;1875;-48
2022/01/25 18:11:48;;;;;;;;;;;;;;;;;;7393468;19;2288;-52
2022/01/25 18:14:16;;;;;;;;;;;;;;;;;;7390069;19;2241;-51
2022/01/25 18:16:44;;;;;;;;;;;;;;;;;;7389037;19;2157;-51
2022/01/25 18:19:13;;;;;;;;;;;;;;;;;;7388655;19;2325;-49
2022/01/25 18:21:45;;;;;;;;;;;;;;;;;;7390200;19;2208;-45
2022/01/25 18:24:17;;;;;;;;;;;;;;;;;;7389769;19;2117;-46
2022/01/25 18:26:47;;;;;;;;;;;;;;;;;;7390447;19;2322;-47
2022/01/25 18:29:15;;;;;;;;;;;;;;;;;;7389778;19;2103;-49
2022/01/25 18:31:42;;;;;;;;;;;;;;;;;;7389767;19;2100;-44
2022/01/25 18:34:10;;;;;;;;;;;;;;;;;;7395172;19;2193;-44
2022/01/25 18:36:37;;;;;;;;;;;;;;;;;;7388027;19;2331;-43
2022/01/25 18:39:08;;;;;;;;;;;;;;;;;;7389429;19;2151;-43
2022/01/25 18:41:40;;;;;;;;;;;;;;;;;;7389375;19;2439;-47
2022/01/25 18:44:07;;;;;;;;;;;;;;;;;;7389763;19;2371;-43
2022/01/25 18:46:35;;;;;;;;;;;;;;;;;;7396827;19;2264;-43
2022/01/25 18:49:05;;;;;;;;;;;;;;;;;;7396523;19;2290;-46
2022/01/25 18:51:36;;;;;;;;;;;;;;;;;;7397201;19;1892;-43
2022/01/25 18:54:05;;;;;;;;;;;;;;;;;;7396911;19;2396;-47
2022/01/25 18:56:32;;;;;;;;;;;;;;;;;;7396196;19;2216;-49
2022/01/25 18:59:00;;;;;;;;;;;;;;;;;;7393671;19;2019;-46
2022/01/25 19:01:27;;;;;;;;;;;;;;;;;;7396428;19;2239;-46
2022/01/25 19:03:57;;;;;;;;;;;;;;;;;;7397140;19;2336;-45
2022/01/25 19:06:24;;;;;;;;;;;;;;;;;;7396469;19;2295;-45
2022/01/25 19:08:52;;;;;;;;;;;;;;;;;;7396478;19;2395;-49
2022/01/25 19:11:19;;;;;;;;;;;;;;;;;;7397209;19;1765;-46
2022/01/25 19:13:46;;;;;;;;;;;;;;;;;;7396376;19;1821;-48
2022/01/25 19:16:13;;;;;;;;;;;;;;;;;;7395095;19;1965;-47
2022/01/25 19:18:40;;;;;;;;;;;;;;;;;;7393379;19;2289;-44
2022/01/25 19:21:07;;;;;;;;;;;;;;;;;;7395272;19;2334;-43
2022/01/25 19:23:35;;;;;;;;;;;;;;;;;;7395993;19;1770;-52
2022/01/25 19:26:02;;;;;;;;;;;;;;;;;;7396216;19;2278;-45